createdAt,value
2023-01-13T00:00:05.306Z,100210.91
2023-01-13T00:02:33.937Z,100220.72
2023-01-13T00:05:00.366Z,100206.72
2023-01-13T00:07:26.745Z,100210.25
2023-01-13T00:09:53.084Z,100212.50
2023-01-13T00:12:19.561Z,100204.06
2023-01-13T00:14:45.958Z,100216.91
2023-01-13T00:17:12.328Z,100215.84
2023-01-13T00:19:38.743Z,100224.16
2023-01-13T00:22:06.309Z,100222.63
2023-01-13T00:24:32.855Z,100229.06
2023-01-13T00:26:59.220Z,100224.75
2023-01-13T00:29:25.653Z,100216.31
2023-01-13T00:31:52.269Z,100214.75
2023-01-13T00:34:18.628Z,100221.16
2023-01-13T00:36:45.027Z,100220.19
2023-01-13T00:39:11.438Z,100225.13
2023-01-13T00:41:56.403Z,100216.41
2023-01-13T00:44:22.769Z,100226.72
2023-01-13T00:46:49.136Z,100219.06
2023-01-13T00:49:15.506Z,100210.91
2023-01-13T00:51:41.858Z,100224.28
2023-01-13T00:54:08.183Z,100214.91
2023-01-13T00:56:40.047Z,100191.47
2023-01-13T00:59:11.132Z,100202.88
2023-01-13T01:01:37.932Z,100212.19
2023-01-13T01:04:04.609Z,100214.91
2023-01-13T01:06:31.015Z,100219.81
2023-01-13T01:08:57.536Z,100220.53
2023-01-13T01:11:26.316Z,100217.44
2023-01-13T01:13:54.792Z,100215.41
2023-01-13T01:16:23.927Z,100211.06
2023-01-13T01:18:51.527Z,100211.78
2023-01-13T01:21:18.967Z,100218.16
2023-01-13T01:23:45.918Z,100222.84
2023-01-13T01:26:15.733Z,100233.41
2023-01-13T01:28:42.651Z,100211.47
2023-01-13T01:31:16.482Z,100219.84
2023-01-13T01:33:43.164Z,100221.47
2023-01-13T01:36:14.732Z,100222.69
2023-01-13T01:38:41.378Z,100228.31
2023-01-13T01:41:07.923Z,100220.97
2023-01-13T01:43:59.413Z,100230.50
2023-01-13T01:46:28.057Z,100236.22
2023-01-13T01:49:16.779Z,100241.56
2023-01-13T01:51:55.136Z,100232.00
2023-01-13T01:54:28.348Z,100227.81
2023-01-13T01:56:55.358Z,100213.66
2023-01-13T01:59:21.815Z,100233.16
2023-01-13T02:01:48.449Z,100228.50
2023-01-13T02:04:20.453Z,100225.16
2023-01-13T02:06:48.151Z,100207.44
2023-01-13T02:09:15.328Z,100222.47
2023-01-13T02:12:00.146Z,100230.84
2023-01-13T02:14:29.239Z,100226.88
2023-01-13T02:17:16.450Z,100223.91
2023-01-13T02:20:11.062Z,100215.53
2023-01-13T02:22:54.904Z,100222.53
2023-01-13T02:25:33.233Z,100221.53
2023-01-13T02:28:34.772Z,100218.50
2023-01-13T02:31:28.906Z,100221.16
2023-01-13T02:34:09.536Z,100215.47
2023-01-13T02:36:45.188Z,100208.97
2023-01-13T02:39:27.052Z,100210.84
2023-01-13T02:42:31.042Z,100195.19
2023-01-13T02:45:06.698Z,100202.47
2023-01-13T02:47:36.495Z,100190.44
2023-01-13T02:50:08.816Z,100190.72
2023-01-13T02:52:43.439Z,100197.94
2023-01-13T02:55:15.742Z,100197.81
2023-01-13T02:57:43.816Z,100182.41
2023-01-13T03:00:12.413Z,100181.06
2023-01-13T03:02:39.042Z,100175.09
2023-01-13T03:05:06.844Z,100171.72
2023-01-13T03:07:57.088Z,100167.22
2023-01-13T03:10:37.312Z,100171.75
2023-01-13T03:13:09.918Z,100169.47
2023-01-13T03:15:58.537Z,100166.94
2023-01-13T03:18:52.516Z,100155.69
2023-01-13T03:21:27.919Z,100139.94
2023-01-13T03:24:17.375Z,100153.59
2023-01-13T03:26:51.215Z,100153.97
2023-01-13T03:29:27.450Z,100158.97
2023-01-13T03:31:57.570Z,100156.13
2023-01-13T03:34:31.341Z,100145.38
2023-01-13T03:37:01.265Z,100146.75
2023-01-13T03:39:34.767Z,100149.78
2023-01-13T03:42:07.727Z,100136.25
2023-01-13T03:44:40.037Z,100134.28
2023-01-13T03:47:41.228Z,100125.41
2023-01-13T03:50:28.301Z,100121.41
2023-01-13T03:53:07.471Z,100124.84
2023-01-13T03:55:43.273Z,100139.22
2023-01-13T03:58:17.665Z,100139.22
2023-01-13T04:00:55.132Z,100140.91
2023-01-13T04:03:31.574Z,100140.91
2023-01-13T04:06:09.978Z,100143.28
2023-01-13T04:08:44.596Z,100123.84
2023-01-13T04:11:19.339Z,100122.84
2023-01-13T04:13:48.588Z,100123.47
2023-01-13T04:16:15.344Z,100126.53
2023-01-13T04:18:41.728Z,100123.47
2023-01-13T04:21:08.232Z,100123.06
2023-01-13T04:23:34.616Z,100116.81
2023-01-13T04:26:01.000Z,100106.88
2023-01-13T04:28:27.576Z,100112.34
2023-01-13T04:30:53.960Z,100114.03
2023-01-13T04:33:20.939Z,100108.41
2023-01-13T04:35:48.323Z,100120.75
2023-01-13T04:38:17.137Z,100112.75
2023-01-13T04:40:44.279Z,100080.75
2023-01-13T04:43:11.175Z,100099.41
2023-01-13T04:45:37.715Z,100104.41
2023-01-13T04:48:04.440Z,100119.28
2023-01-13T04:50:30.876Z,100113.94
2023-01-13T04:52:57.245Z,100109.94
2023-01-13T04:55:24.930Z,100109.94
2023-01-13T04:57:51.617Z,100117.63
2023-01-13T05:00:19.903Z,100101.78
2023-01-13T05:02:46.285Z,100115.22
2023-01-13T05:05:12.685Z,100118.19
2023-01-13T05:07:39.069Z,100114.97
2023-01-13T05:10:05.899Z,100097.00
2023-01-13T05:12:51.115Z,100111.78
2023-01-13T05:15:35.971Z,100111.13
2023-01-13T05:18:02.600Z,100111.00
2023-01-13T05:20:28.950Z,100122.41
2023-01-13T05:23:13.703Z,100113.81
2023-01-13T05:25:44.160Z,100100.72
2023-01-13T05:28:11.007Z,100096.63
2023-01-13T05:30:43.834Z,100117.78
2023-01-13T05:33:11.419Z,100122.34
2023-01-13T05:35:39.508Z,100100.06
2023-01-13T05:38:05.904Z,100118.25
2023-01-13T05:40:50.966Z,100108.31
2023-01-13T05:43:19.916Z,100094.88
2023-01-13T05:45:50.265Z,100107.63
2023-01-13T05:48:17.901Z,100112.16
2023-01-13T05:50:45.255Z,100121.13
2023-01-13T05:53:11.770Z,100102.56
2023-01-13T05:55:40.299Z,100101.84
2023-01-13T05:58:08.505Z,100108.31
2023-01-13T06:00:35.430Z,100107.66
2023-01-13T06:03:02.576Z,100098.97
2023-01-13T06:05:29.495Z,100114.94
2023-01-13T06:08:00.228Z,100089.75
2023-01-13T06:10:27.665Z,100103.84
2023-01-13T06:12:54.172Z,100098.13
2023-01-13T06:15:21.149Z,100099.94
2023-01-13T06:17:47.771Z,100102.72
2023-01-13T06:20:15.813Z,100101.84
2023-01-13T06:22:45.620Z,100098.16
2023-01-13T06:25:24.004Z,100101.13
2023-01-13T06:27:51.051Z,100091.75
2023-01-13T06:30:17.693Z,100107.31
2023-01-13T06:32:47.916Z,100110.09
2023-01-13T06:35:17.588Z,100085.94
2023-01-13T06:37:45.127Z,100091.59
2023-01-13T06:40:14.075Z,100100.09
2023-01-13T06:42:59.742Z,100105.47
2023-01-13T06:45:29.134Z,100102.78
2023-01-13T06:47:58.359Z,100110.50
2023-01-13T06:50:24.926Z,100092.78
2023-01-13T06:52:51.693Z,100106.38
2023-01-13T06:55:18.041Z,100099.84
2023-01-13T06:58:02.364Z,100095.38
2023-01-13T07:00:28.952Z,100114.06
2023-01-13T07:03:07.184Z,100095.75
2023-01-13T07:05:33.631Z,100097.06
2023-01-13T07:08:00.378Z,100121.88
2023-01-13T07:10:26.744Z,100108.25
2023-01-13T07:13:11.556Z,100110.09
2023-01-13T07:15:37.965Z,100118.94
2023-01-13T07:18:04.335Z,100112.25
2023-01-13T07:20:30.809Z,100113.81
2023-01-13T07:22:57.972Z,100102.91
2023-01-13T07:25:24.404Z,100120.03
2023-01-13T07:27:50.804Z,100120.66
2023-01-13T07:30:17.522Z,100115.75
2023-01-13T07:32:43.918Z,100119.25
2023-01-13T07:35:10.339Z,100107.41
2023-01-13T07:37:38.146Z,100111.63
2023-01-13T07:40:05.196Z,100114.50
2023-01-13T07:42:50.052Z,100113.72
2023-01-13T07:45:16.492Z,100126.69
2023-01-13T07:47:42.854Z,100121.00
2023-01-13T07:50:09.809Z,100136.50
2023-01-13T07:52:36.192Z,100142.91
2023-01-13T07:55:02.616Z,100144.66
2023-01-13T07:57:29.024Z,100150.63
2023-01-13T07:59:55.492Z,100153.75
2023-01-13T08:02:22.084Z,100163.31
2023-01-13T08:04:48.628Z,100167.03
2023-01-13T08:07:15.035Z,100170.34
2023-01-13T08:09:41.389Z,100164.41
2023-01-13T08:12:26.563Z,100166.53
2023-01-13T08:14:53.984Z,100151.03
2023-01-13T08:17:20.656Z,100153.59
2023-01-13T08:19:47.434Z,100155.47
2023-01-13T08:22:13.816Z,100166.97
2023-01-13T08:24:40.187Z,100163.38
2023-01-13T08:27:06.569Z,100170.56
2023-01-13T08:29:32.959Z,100180.88
2023-01-13T08:31:59.345Z,100174.22
2023-01-13T08:34:25.712Z,100173.97
2023-01-13T08:36:52.129Z,100168.97
2023-01-13T08:39:18.653Z,100179.03
2023-01-13T08:41:56.885Z,100163.00
2023-01-13T08:44:24.547Z,100165.34
2023-01-13T08:46:50.934Z,100168.97
2023-01-13T08:49:17.585Z,100171.41
2023-01-13T08:51:44.679Z,100169.66
2023-01-13T08:54:11.643Z,100167.66
2023-01-13T08:56:39.053Z,100175.16
2023-01-13T08:59:05.987Z,100175.16
2023-01-13T09:01:33.897Z,100181.84
2023-01-13T09:04:00.508Z,100186.66
2023-01-13T09:06:26.927Z,100190.34
2023-01-13T09:08:53.353Z,100176.28
2023-01-13T09:11:44.685Z,100191.16
2023-01-13T09:14:11.041Z,100199.84
2023-01-13T09:16:37.408Z,100176.25
2023-01-13T09:19:03.790Z,100190.50
2023-01-13T09:21:30.286Z,100188.97
2023-01-13T09:23:56.643Z,100179.09
2023-01-13T09:26:23.019Z,100200.94
2023-01-13T09:28:49.502Z,100195.09
2023-01-13T09:31:15.946Z,100200.66
2023-01-13T09:34:00.667Z,100193.31
2023-01-13T09:36:27.057Z,100200.38
2023-01-13T09:38:53.431Z,100203.88
2023-01-13T09:41:41.009Z,100216.59
2023-01-13T09:44:16.664Z,100202.13
2023-01-13T09:46:59.126Z,100214.19
2023-01-13T09:49:37.698Z,100217.47
2023-01-13T09:52:08.179Z,100216.66
2023-01-13T09:54:50.265Z,100224.84
2023-01-13T09:57:19.240Z,100219.50
2023-01-13T09:59:46.043Z,100223.53
2023-01-13T10:02:24.207Z,100221.66
2023-01-13T10:05:04.993Z,100225.69
2023-01-13T10:07:35.492Z,100216.19
2023-01-13T10:10:03.359Z,100213.53
2023-01-13T10:12:49.894Z,100228.19
2023-01-13T10:15:21.250Z,100225.47
2023-01-13T10:17:52.080Z,100225.47
2023-01-13T10:20:30.026Z,100222.00
2023-01-13T10:23:19.113Z,100226.50
2023-01-13T10:25:59.278Z,100223.16
2023-01-13T10:28:26.431Z,100238.00
2023-01-13T10:30:52.902Z,100241.13
2023-01-13T10:33:26.268Z,100255.09
2023-01-13T10:36:04.245Z,100251.59
2023-01-13T10:38:42.304Z,100253.97
2023-01-13T10:41:20.559Z,100269.53
2023-01-13T10:44:09.415Z,100273.72
2023-01-13T10:46:54.426Z,100270.22
2023-01-13T10:49:28.782Z,100256.66
2023-01-13T10:51:55.365Z,100260.34
2023-01-13T10:54:24.495Z,100252.50
2023-01-13T10:57:28.721Z,100249.28
2023-01-13T10:59:56.244Z,100255.59
2023-01-13T11:02:29.280Z,100265.59
2023-01-13T11:04:55.713Z,100271.31
2023-01-13T11:07:32.897Z,100270.13
2023-01-13T11:10:17.355Z,100271.94
2023-01-13T11:13:12.464Z,100277.78
2023-01-13T11:15:55.268Z,100265.19
2023-01-13T11:18:30.859Z,100268.56
2023-01-13T11:21:00.271Z,100276.44
2023-01-13T11:23:35.368Z,100269.91
2023-01-13T11:26:12.826Z,100261.38
2023-01-13T11:28:50.307Z,100283.88
2023-01-13T11:31:25.303Z,100271.13
2023-01-13T11:33:59.140Z,100297.97
2023-01-13T11:36:46.300Z,100298.94
2023-01-13T11:39:24.884Z,100295.16
2023-01-13T11:42:22.138Z,100291.66
2023-01-13T11:44:58.304Z,100294.00
2023-01-13T11:47:26.870Z,100299.00
2023-01-13T11:49:53.647Z,100295.44
2023-01-13T11:52:32.137Z,100298.00
2023-01-13T11:55:10.185Z,100303.03
2023-01-13T11:57:54.632Z,100305.25
2023-01-13T12:00:38.444Z,100298.66
2023-01-13T12:03:24.532Z,100298.13
2023-01-13T12:06:12.876Z,100297.31
2023-01-13T12:08:51.840Z,100306.53
2023-01-13T12:12:02.389Z,100303.03
2023-01-13T12:14:51.950Z,100309.31
2023-01-13T12:17:27.579Z,100311.94
2023-01-13T12:19:54.064Z,100318.41
2023-01-13T12:22:30.932Z,100303.81
2023-01-13T12:25:21.449Z,100314.25
2023-01-13T12:27:58.012Z,100320.94
2023-01-13T12:30:50.438Z,100325.63
2023-01-13T12:33:45.397Z,100328.63
2023-01-13T12:36:23.781Z,100323.78
2023-01-13T12:38:59.358Z,100323.63
2023-01-13T12:42:11.096Z,100326.66
2023-01-13T12:44:37.475Z,100325.47
2023-01-13T12:47:03.927Z,100322.94
2023-01-13T12:49:33.396Z,100328.91
2023-01-13T12:52:08.299Z,100318.72
2023-01-13T12:54:37.399Z,100330.28
2023-01-13T12:57:33.947Z,100326.59
2023-01-13T13:00:03.143Z,100341.69
2023-01-13T13:02:35.633Z,100334.69
2023-01-13T13:05:13.849Z,100346.25
2023-01-13T13:07:45.437Z,100357.81
2023-01-13T13:10:29.561Z,100363.44
2023-01-13T13:13:17.892Z,100355.56
2023-01-13T13:15:46.627Z,100347.06
2023-01-13T13:18:23.823Z,100357.59
2023-01-13T13:21:01.661Z,100383.00
2023-01-13T13:23:47.746Z,100380.50
2023-01-13T13:26:24.860Z,100379.19
2023-01-13T13:29:31.326Z,100375.38
2023-01-13T13:32:06.710Z,100389.25
2023-01-13T13:34:53.086Z,100397.31
2023-01-13T13:37:59.504Z,100384.56
2023-01-13T13:40:53.728Z,100389.06
2023-01-13T13:43:39.199Z,100386.47
2023-01-13T13:46:42.280Z,100387.66
2023-01-13T13:49:08.667Z,100401.25
2023-01-13T13:51:46.363Z,100406.22
2023-01-13T13:54:17.013Z,100385.00
2023-01-13T13:56:46.032Z,100404.44
2023-01-13T13:59:16.604Z,100408.13
2023-01-13T14:01:45.802Z,100403.94
2023-01-13T14:04:17.925Z,100415.09
2023-01-13T14:07:11.762Z,100399.53
2023-01-13T14:09:45.105Z,100415.06
2023-01-13T14:12:22.662Z,100405.53
2023-01-13T14:14:50.006Z,100420.59
2023-01-13T14:17:24.328Z,100430.16
2023-01-13T14:20:16.806Z,100423.94
2023-01-13T14:23:00.488Z,100429.00
2023-01-13T14:25:39.310Z,100435.66
2023-01-13T14:28:17.592Z,100445.69
2023-01-13T14:30:44.589Z,100436.38
2023-01-13T14:33:24.366Z,100458.84
2023-01-13T14:36:36.444Z,100453.13
2023-01-13T14:39:02.751Z,100463.22
2023-01-13T14:41:38.027Z,100458.84
2023-01-13T14:44:23.014Z,100454.81
2023-01-13T14:46:49.882Z,100464.69
2023-01-13T14:49:22.819Z,100476.78
2023-01-13T14:51:49.825Z,100479.66
2023-01-13T14:54:41.203Z,100476.97
2023-01-13T14:57:25.887Z,100483.84
2023-01-13T14:59:57.443Z,100483.88
2023-01-13T15:02:29.772Z,100493.88
2023-01-13T15:05:19.234Z,100491.38
2023-01-13T15:07:54.171Z,100488.69
2023-01-13T15:10:23.954Z,100499.41
2023-01-13T15:49:47.363Z,100575.84
2023-01-13T15:52:25.186Z,100587.94
2023-01-13T15:54:52.831Z,100572.47
2023-01-13T15:57:27.901Z,100594.25
2023-01-13T16:00:00.488Z,100607.47
2023-01-13T16:02:27.308Z,100628.53
2023-01-13T16:04:54.422Z,100598.81
2023-01-13T16:07:22.438Z,100612.88
2023-01-13T16:09:48.816Z,100612.53
2023-01-13T16:12:15.247Z,100614.22
2023-01-13T16:14:41.735Z,100606.16
2023-01-13T16:17:18.933Z,100629.09
2023-01-13T16:19:45.867Z,100625.59
2023-01-13T16:22:14.372Z,100624.75
2023-01-13T16:24:41.358Z,100647.84
2023-01-13T16:27:16.714Z,100644.47
2023-01-13T16:29:43.824Z,100650.81
2023-01-13T16:32:10.367Z,100656.53
2023-01-13T16:34:36.862Z,100670.25
2023-01-13T16:37:03.373Z,100673.75
2023-01-13T16:39:30.898Z,100666.63
2023-01-13T16:41:57.297Z,100682.69
2023-01-13T16:44:23.661Z,100692.41
2023-01-13T16:46:50.088Z,100701.13
2023-01-13T16:49:17.485Z,100688.34
2023-01-13T16:51:44.233Z,100702.47
2023-01-13T16:54:11.808Z,100716.13
2023-01-13T16:56:38.326Z,100704.75
2023-01-13T16:59:11.556Z,100720.94
2023-01-13T17:01:40.089Z,100730.81
2023-01-13T17:04:13.018Z,100725.66
2023-01-13T17:07:00.776Z,100747.25
2023-01-13T17:09:29.058Z,100746.63
2023-01-13T17:11:56.521Z,100744.44
2023-01-13T17:14:23.556Z,100748.38
2023-01-13T17:16:53.024Z,100741.69
2023-01-13T17:19:22.078Z,100761.72
2023-01-13T17:21:50.832Z,100765.72
2023-01-13T17:24:17.216Z,100774.69
2023-01-13T17:26:49.336Z,100779.09
2023-01-13T17:29:22.522Z,100787.81
2023-01-13T17:31:51.145Z,100797.84
2023-01-13T17:34:18.587Z,100780.34
2023-01-13T17:36:45.034Z,100802.56
2023-01-13T17:39:25.704Z,100796.69
2023-01-13T17:41:53.443Z,100799.19
2023-01-13T17:44:21.428Z,100807.75
2023-01-13T17:46:48.720Z,100799.59
2023-01-13T17:49:17.379Z,100811.47
2023-01-13T17:51:47.975Z,100822.38
2023-01-13T17:54:15.613Z,100816.84
2023-01-13T17:56:42.636Z,100830.13
2023-01-13T17:59:11.145Z,100820.69
2023-01-13T18:01:38.256Z,100826.06
2023-01-13T18:04:04.817Z,100832.41
2023-01-13T18:06:32.457Z,100839.38
2023-01-13T18:09:00.814Z,100839.03
2023-01-13T18:11:27.478Z,100854.31
2023-01-13T18:13:56.819Z,100861.66
2023-01-13T18:16:24.963Z,100860.13
2023-01-13T18:18:53.574Z,100857.78
2023-01-13T18:21:44.567Z,100861.97
2023-01-13T18:24:31.501Z,100879.53
2023-01-13T18:27:16.715Z,100866.22
2023-01-13T18:29:43.695Z,100864.56
2023-01-13T18:32:10.051Z,100886.06
2023-01-13T18:34:37.464Z,100886.19
2023-01-13T18:37:05.090Z,100889.38
2023-01-13T18:39:31.890Z,100897.75
2023-01-13T18:42:17.259Z,100899.78
2023-01-13T18:44:43.639Z,100890.44
2023-01-13T18:47:10.008Z,100888.34
2023-01-13T18:49:36.774Z,100901.78
2023-01-13T18:52:03.365Z,100902.44
2023-01-13T18:54:29.719Z,100902.13
2023-01-13T18:56:57.115Z,100902.81
2023-01-13T18:59:24.636Z,100921.22
2023-01-13T19:01:51.888Z,100925.53
2023-01-13T19:04:18.586Z,100932.28
2023-01-13T19:06:51.556Z,100924.25
2023-01-13T19:09:22.658Z,100937.63
2023-01-13T19:11:50.398Z,100936.66
2023-01-13T19:14:33.883Z,100946.25
2023-01-13T19:17:12.444Z,100954.81
2023-01-13T19:19:40.552Z,100960.72
2023-01-13T19:22:07.703Z,100958.44
2023-01-13T19:24:34.408Z,100965.13
2023-01-13T19:27:00.988Z,100955.19
2023-01-13T19:29:27.454Z,100981.50
2023-01-13T19:31:54.032Z,100988.03
2023-01-13T19:34:20.700Z,100997.00
2023-01-13T19:36:47.124Z,101003.47
2023-01-13T19:39:13.946Z,100999.66
2023-01-13T19:41:59.111Z,101014.09
2023-01-13T19:44:44.051Z,101021.97
2023-01-13T19:47:10.436Z,101027.75
2023-01-13T20:10:31.756Z,101048.91
2023-01-13T20:25:31.079Z,101076.44
2023-01-13T20:27:58.411Z,101079.34
2023-01-13T20:30:24.842Z,101104.97
2023-01-13T20:32:52.102Z,101107.53
2023-01-13T20:35:18.665Z,101095.91
2023-01-13T20:37:45.043Z,101131.28
2023-01-13T20:40:15.454Z,101128.84
2023-01-13T20:42:44.971Z,101144.78
2023-01-13T20:45:17.015Z,101153.94
2023-01-13T20:47:44.697Z,101160.13
2023-01-13T20:50:11.766Z,101144.53
2023-01-13T20:52:38.361Z,101144.66
2023-01-13T20:55:07.229Z,101136.78
2023-01-13T20:57:33.732Z,101139.34
2023-01-13T21:00:00.523Z,101105.63
2023-01-13T21:02:26.904Z,101132.19
2023-01-13T21:04:53.331Z,101127.97
2023-01-13T21:07:19.853Z,101152.41
2023-01-13T21:09:46.231Z,101128.97
2023-01-13T21:12:33.628Z,101149.88
2023-01-13T21:15:18.443Z,101137.91
2023-01-13T21:18:04.086Z,101146.91
2023-01-13T21:20:32.977Z,101168.56
2023-01-13T21:23:02.956Z,101166.88
2023-01-13T21:25:31.035Z,101174.31
2023-01-13T21:28:05.600Z,101184.44
2023-01-13T21:30:32.483Z,101173.63
2023-01-13T21:33:00.687Z,101177.56
2023-01-13T21:35:27.047Z,101182.59
2023-01-13T21:37:53.444Z,101169.41
2023-01-13T21:40:19.967Z,101190.34
2023-01-13T21:43:04.814Z,101199.19
2023-01-13T21:45:49.685Z,101209.03
2023-01-13T21:48:16.179Z,101210.97
2023-01-13T21:50:42.594Z,101204.06
2023-01-13T21:53:09.194Z,101215.03
2023-01-13T21:55:36.665Z,101206.19
2023-01-13T21:58:13.275Z,101211.94
2023-01-13T22:00:42.425Z,101225.59
2023-01-13T22:03:10.509Z,101218.16
2023-01-13T22:05:37.342Z,101228.69
2023-01-13T22:08:04.467Z,101215.72
2023-01-13T22:10:31.489Z,101227.81
2023-01-13T22:13:20.603Z,101231.06
2023-01-13T22:15:47.474Z,101243.88
2023-01-13T22:18:13.925Z,101240.81
2023-01-13T22:20:41.954Z,101239.94
2023-01-13T22:23:08.408Z,101254.69
2023-01-13T22:25:34.776Z,101230.81
2023-01-13T22:28:05.911Z,101241.38
2023-01-13T22:30:33.106Z,101242.22
2023-01-13T22:32:59.787Z,101254.28
2023-01-13T22:35:26.223Z,101249.50
2023-01-13T22:37:52.584Z,101263.84
2023-01-13T22:40:18.963Z,101278.31
2023-01-13T22:42:45.441Z,101272.00
2023-01-13T22:45:13.441Z,101272.56
2023-01-13T22:47:40.002Z,101263.56
2023-01-13T22:50:07.826Z,101283.41
2023-01-13T22:52:35.154Z,101284.38
2023-01-13T22:55:01.623Z,101286.06
2023-01-13T22:57:47.626Z,101289.56
2023-01-13T23:00:15.111Z,101292.25
2023-01-13T23:02:41.658Z,101297.59
2023-01-13T23:05:08.416Z,101303.75
2023-01-13T23:07:35.554Z,101302.09
2023-01-13T23:10:02.393Z,101291.97
2023-01-13T23:12:28.754Z,101285.22
2023-01-13T23:14:55.112Z,101300.41
2023-01-13T23:17:21.460Z,101301.78
2023-01-13T23:19:47.837Z,101302.34
2023-01-13T23:22:14.224Z,101294.50
2023-01-13T23:24:40.589Z,101290.00
2023-01-13T23:27:06.991Z,101304.63
2023-01-13T23:29:33.351Z,101306.59
2023-01-13T23:31:59.720Z,101299.84
2023-01-13T23:34:26.266Z,101293.53
2023-01-13T23:36:52.636Z,101290.16
2023-01-13T23:39:19.048Z,101291.13
2023-01-13T23:41:45.392Z,101282.41
2023-01-13T23:44:11.785Z,101317.13
2023-01-13T23:46:38.311Z,101297.47
2023-01-13T23:49:04.901Z,101293.09
2023-01-13T23:51:31.718Z,101291.84
2023-01-13T23:53:59.247Z,101307.56
2023-01-13T23:56:28.829Z,101311.50
2023-01-13T23:58:55.550Z,101317.28
